Time;durP1;ratioP1;P1;durP2;ratioP2;P2;SDS_P1;SDS_P2;PMS_P1;PMS_P2;Temp;Humidity;BMP_temperature;BMP_pressure;BME280_temperature;BME280_humidity;BME280_pressure;Samples;Min_cycle;Max_cycle;Signal;HPM_P1;HPM_P2
2022/01/07 00:02:13;;;;;;;7.13;3.40;;;-1.10;99.90;;;;;;5041730;28;20198;-69
2022/01/07 00:04:40;;;;;;;6.97;3.50;;;-1.10;99.90;;;;;;5022646;28;20897;-68
2022/01/07 00:07:08;;;;;;;5.87;3.47;;;-1.10;99.90;;;;;;5033889;28;20214;-68
2022/01/07 00:09:37;;;;;;;8.43;3.57;;;-1.10;99.90;;;;;;5031815;28;20206;-69
2022/01/07 00:12:06;;;;;;;5.77;3.37;;;-1.10;99.90;;;;;;5028701;28;20238;-69
2022/01/07 00:14:34;;;;;;;7.83;3.60;;;-1.10;99.90;;;;;;5033181;28;20829;-68
2022/01/07 00:17:00;;;;;;;7.83;3.87;;;-1.00;99.90;;;;;;5031217;28;20203;-68
2022/01/07 00:19:27;;;;;;;8.67;3.80;;;-1.10;99.90;;;;;;5033993;28;20217;-70
2022/01/07 00:21:54;;;;;;;9.50;4.07;;;-1.00;99.90;;;;;;5032998;28;20249;-71
2022/01/07 00:24:21;;;;;;;10.77;4.03;;;-1.10;99.90;;;;;;5031955;28;20606;-68
2022/01/07 00:26:48;;;;;;;8.67;4.03;;;-1.10;99.90;;;;;;5042701;28;20210;-69
2022/01/07 00:29:16;;;;;;;9.10;4.10;;;-1.10;99.90;;;;;;5052115;28;20303;-70
2022/01/07 00:31:43;;;;;;;7.53;3.97;;;-1.10;99.90;;;;;;5045983;28;20333;-69
2022/01/07 00:34:10;;;;;;;8.43;3.60;;;-1.10;99.90;;;;;;5029834;28;20609;-69
2022/01/07 00:36:37;;;;;;;11.43;4.27;;;-1.10;99.90;;;;;;5038424;28;20260;-69
2022/01/07 00:39:04;;;;;;;8.77;3.70;;;-1.10;99.90;;;;;;5038185;28;20659;-69
2022/01/07 00:41:31;;;;;;;8.67;3.93;;;-1.10;99.90;;;;;;5037114;28;20198;-68
2022/01/07 00:43:58;;;;;;;5.97;3.57;;;-1.20;99.90;;;;;;5038883;28;20413;-68
2022/01/07 00:46:26;;;;;;;8.00;4.10;;;-1.20;99.90;;;;;;5039046;28;20218;-69
2022/01/07 00:48:53;;;;;;;7.33;3.70;;;-1.20;99.90;;;;;;5046125;28;20294;-68
2022/01/07 00:51:20;;;;;;;10.10;4.03;;;-1.30;99.90;;;;;;5047719;28;20297;-68
2022/01/07 00:53:47;;;;;;;6.20;3.37;;;-1.30;99.90;;;;;;5044462;28;20221;-70
2022/01/07 00:56:14;;;;;;;7.27;3.80;;;-1.20;99.90;;;;;;5036927;28;20213;-68
2022/01/07 00:58:41;;;;;;;9.60;3.40;;;-1.20;99.90;;;;;;5037175;28;20213;-68
2022/01/07 01:01:08;;;;;;;7.93;3.47;;;-1.20;99.90;;;;;;5036227;28;20229;-68
2022/01/07 01:03:36;;;;;;;6.40;3.00;;;-1.20;99.90;;;;;;5044801;28;20237;-68
2022/01/07 01:06:03;;;;;;;7.93;3.67;;;-1.20;99.90;;;;;;5034916;28;20214;-68
2022/01/07 01:08:30;;;;;;;5.33;3.03;;;-1.20;99.90;;;;;;5036967;28;20649;-67
2022/01/07 01:10:57;;;;;;;8.43;3.63;;;-1.20;99.90;;;;;;5044173;28;20595;-68
2022/01/07 01:13:24;;;;;;;7.07;3.27;;;-1.20;99.90;;;;;;5044240;28;20234;-68
2022/01/07 01:15:51;;;;;;;5.70;3.00;;;-1.20;99.90;;;;;;5036966;28;20214;-67
2022/01/07 01:18:18;;;;;;;7.23;3.50;;;-1.20;99.90;;;;;;5036311;28;20207;-68
2022/01/07 01:20:46;;;;;;;9.30;3.73;;;-1.20;99.90;;;;;;5036582;28;20225;-68
2022/01/07 01:23:13;;;;;;;8.20;3.80;;;-1.20;99.90;;;;;;5035746;28;20301;-68
2022/01/07 01:25:40;;;;;;;7.67;3.23;;;-1.30;99.90;;;;;;5038867;28;20218;-68
2022/01/07 01:28:07;;;;;;;8.13;4.17;;;-1.30;99.90;;;;;;5048494;28;20214;-68
2022/01/07 01:30:35;;;;;;;8.57;3.83;;;-1.30;99.90;;;;;;5035962;28;20198;-67
2022/01/07 01:33:03;;;;;;;9.10;3.77;;;-1.30;99.90;;;;;;5034973;28;20230;-67
2022/01/07 01:35:30;;;;;;;6.57;3.73;;;-1.30;99.90;;;;;;5041259;28;20293;-68
2022/01/07 01:37:58;;;;;;;8.17;4.50;;;-1.30;99.90;;;;;;5034240;28;20246;-70
2022/01/07 01:40:25;;;;;;;9.07;4.33;;;-1.30;99.90;;;;;;5035185;28;20203;-68
2022/01/07 01:42:53;;;;;;;10.90;4.07;;;-1.20;99.90;;;;;;5035564;28;20225;-68
2022/01/07 01:45:20;;;;;;;8.83;4.13;;;-1.30;99.90;;;;;;5036766;28;20644;-68
2022/01/07 01:47:49;;;;;;;8.60;3.83;;;-1.30;99.90;;;;;;5036342;28;20207;-69
2022/01/07 01:50:16;;;;;;;11.13;4.60;;;-1.30;99.90;;;;;;5040132;28;20209;-67
2022/01/07 01:52:47;;;;;;;10.57;3.83;;;-1.40;99.90;;;;;;5035849;28;20309;-67
2022/01/07 01:55:18;;;;;;;8.50;4.50;;;-1.40;99.90;;;;;;5035763;28;20217;-68
2022/01/07 01:57:45;;;;;;;7.83;4.37;;;-1.40;99.90;;;;;;5043605;28;20228;-68
2022/01/07 02:00:13;;;;;;;8.57;4.13;;;-1.50;99.90;;;;;;5037922;28;20293;-68
2022/01/07 02:02:40;;;;;;;8.43;3.73;;;-1.50;99.90;;;;;;5034572;28;20195;-68
2022/01/07 02:05:09;;;;;;;7.80;3.97;;;-1.40;99.90;;;;;;5036094;28;20218;-68
2022/01/07 02:07:38;;;;;;;8.40;4.33;;;-1.40;99.90;;;;;;5035939;28;20209;-67
2022/01/07 02:10:06;;;;;;;7.90;3.93;;;-1.50;99.90;;;;;;5035219;28;20226;-68
2022/01/07 02:12:34;;;;;;;8.07;4.50;;;-1.50;99.90;;;;;;5021945;28;20241;-68
2022/01/07 02:15:01;;;;;;;8.10;3.70;;;-1.50;99.90;;;;;;5036296;28;20213;-69
2022/01/07 02:17:28;;;;;;;7.00;3.10;;;-1.50;99.90;;;;;;5049327;28;20301;-68
2022/01/07 02:19:57;;;;;;;6.53;4.10;;;-1.60;99.90;;;;;;5035840;28;20275;-68
2022/01/07 02:22:25;;;;;;;8.03;3.53;;;-1.50;99.90;;;;;;5034668;28;20657;-67
2022/01/07 02:24:53;;;;;;;13.83;4.00;;;-1.60;99.90;;;;;;5034369;28;20222;-68
2022/01/07 02:27:20;;;;;;;5.57;3.17;;;-1.60;99.90;;;;;;5033773;28;20317;-68
2022/01/07 02:29:49;;;;;;;6.93;3.53;;;-1.60;99.90;;;;;;5034635;28;20297;-68
2022/01/07 02:32:17;;;;;;;8.90;3.90;;;-1.60;99.90;;;;;;5035083;28;20214;-68
2022/01/07 02:34:44;;;;;;;10.10;3.70;;;-1.70;99.90;;;;;;5026614;28;20206;-68
2022/01/07 02:37:13;;;;;;;8.27;4.03;;;-1.70;99.90;;;;;;5035093;28;20245;-68
2022/01/07 02:39:41;;;;;;;9.03;4.07;;;-1.70;99.90;;;;;;5034274;28;20301;-68
2022/01/07 02:42:09;;;;;;;12.93;4.47;;;-1.60;99.90;;;;;;5045968;28;20700;-68
2022/01/07 02:44:36;;;;;;;6.43;3.23;;;-1.70;99.90;;;;;;5037075;28;20209;-68
2022/01/07 02:47:03;;;;;;;9.47;3.80;;;-1.70;99.90;;;;;;5034376;28;20667;-68
2022/01/07 02:49:30;;;;;;;8.43;3.00;;;-1.70;99.90;;;;;;5034170;28;20206;-69
2022/01/07 02:51:57;;;;;;;9.17;3.50;;;-1.70;99.90;;;;;;5034815;28;20238;-69
2022/01/07 02:54:25;;;;;;;8.07;3.33;;;-1.70;99.90;;;;;;5033422;28;20337;-69
2022/01/07 02:56:52;;;;;;;7.70;3.80;;;-1.70;99.90;;;;;;5036100;28;20291;-68
2022/01/07 02:59:19;;;;;;;5.83;3.17;;;-1.70;99.90;;;;;;5044620;28;20214;-68
2022/01/07 03:01:46;;;;;;;7.17;3.23;;;-1.80;99.90;;;;;;5034407;28;20573;-69
2022/01/07 03:04:13;;;;;;;7.47;3.43;;;-1.70;99.90;;;;;;5022297;28;20297;-69
2022/01/07 03:06:40;;;;;;;6.73;3.33;;;-1.70;99.90;;;;;;5035419;28;20306;-69
2022/01/07 03:09:07;;;;;;;8.33;4.40;;;-1.70;99.90;;;;;;5036618;28;21257;-69
2022/01/07 03:11:36;;;;;;;6.37;3.13;;;-1.80;99.90;;;;;;5047226;28;20208;-69
2022/01/07 03:14:03;;;;;;;7.57;3.73;;;-1.80;99.90;;;;;;5037176;28;20564;-69
2022/01/07 03:16:30;;;;;;;8.23;3.83;;;-1.80;99.90;;;;;;5035178;28;20212;-70
2022/01/07 03:18:58;;;;;;;7.53;3.40;;;-1.80;99.90;;;;;;5034770;28;20251;-69
2022/01/07 03:21:25;;;;;;;8.80;3.83;;;-1.80;99.90;;;;;;5044425;28;20210;-69
2022/01/07 03:23:52;;;;;;;7.13;3.40;;;-1.80;99.90;;;;;;5038778;28;20274;-69
2022/01/07 03:26:19;;;;;;;5.60;3.23;;;-1.80;99.90;;;;;;5034079;28;20211;-69
2022/01/07 03:28:47;;;;;;;5.97;3.20;;;-1.80;99.90;;;;;;5034474;28;20210;-68
2022/01/07 03:31:15;;;;;;;9.90;4.00;;;-1.80;99.90;;;;;;5034160;28;20202;-68
2022/01/07 03:33:42;;;;;;;7.13;3.40;;;-1.80;99.90;;;;;;5038251;28;20674;-69
2022/01/07 03:36:09;;;;;;;6.93;3.47;;;-1.60;99.90;;;;;;5033624;28;20660;-69
2022/01/07 03:38:36;;;;;;;10.07;3.83;;;-1.80;99.90;;;;;;5033131;28;20301;-69
2022/01/07 03:41:04;;;;;;;6.53;3.83;;;-1.80;99.90;;;;;;5036965;28;21114;-69
2022/01/07 03:43:30;;;;;;;9.53;4.13;;;-1.80;99.90;;;;;;5044760;28;20216;-69
2022/01/07 03:45:59;;;;;;;7.27;3.80;;;-1.90;99.90;;;;;;5033902;28;20258;-69
2022/01/07 03:48:26;;;;;;;6.97;4.00;;;-1.90;99.90;;;;;;5036164;28;20673;-68
2022/01/07 03:50:53;;;;;;;6.73;3.43;;;-1.90;99.90;;;;;;5043677;28;20726;-69
2022/01/07 03:53:22;;;;;;;6.67;3.60;;;-1.80;99.90;;;;;;5033184;28;20226;-69
2022/01/07 03:55:49;;;;;;;7.57;3.80;;;-1.90;99.90;;;;;;5041658;28;20642;-68
2022/01/07 03:58:16;;;;;;;9.73;4.43;;;-1.80;99.90;;;;;;5039733;28;20203;-69
2022/01/07 04:00:43;;;;;;;7.47;3.87;;;-1.90;99.90;;;;;;5034712;28;20278;-69
2022/01/07 04:03:14;;;;;;;5.43;3.70;;;-1.90;99.90;;;;;;5033243;28;20245;-68
2022/01/07 04:05:42;;;;;;;9.87;4.27;;;-1.90;99.90;;;;;;5047499;28;20285;-69
2022/01/07 04:08:09;;;;;;;8.90;3.87;;;-1.90;99.90;;;;;;5037422;28;20210;-68
2022/01/07 04:10:37;;;;;;;11.90;4.17;;;-1.90;99.90;;;;;;5036213;28;20206;-69
2022/01/07 04:13:04;;;;;;;8.37;3.97;;;-1.90;99.90;;;;;;5037017;28;20461;-70
2022/01/07 04:15:31;;;;;;;7.97;4.47;;;-2.00;99.90;;;;;;5039074;28;20213;-70
2022/01/07 04:17:58;;;;;;;8.47;4.90;;;-1.90;99.90;;;;;;5037091;28;20214;-69
2022/01/07 04:20:30;;;;;;;13.47;4.60;;;-2.00;99.90;;;;;;5038167;28;20202;-69
2022/01/07 04:22:57;;;;;;;8.63;3.90;;;-2.00;99.90;;;;;;5038564;28;20202;-68
2022/01/07 04:25:24;;;;;;;8.00;4.43;;;-2.00;99.90;;;;;;5051920;28;20461;-68
2022/01/07 04:27:52;;;;;;;8.40;4.00;;;-2.00;99.90;;;;;;5029549;28;20214;-68
2022/01/07 04:30:20;;;;;;;10.77;4.33;;;-2.00;99.90;;;;;;5045297;28;20916;-69
2022/01/07 04:32:48;;;;;;;9.40;4.30;;;-2.00;99.90;;;;;;5037915;28;20219;-69
2022/01/07 04:35:16;;;;;;;10.60;4.47;;;-1.90;99.90;;;;;;5037047;28;20302;-69
2022/01/07 04:37:45;;;;;;;10.03;4.00;;;-2.00;99.90;;;;;;5040351;28;20586;-69
2022/01/07 04:40:14;;;;;;;8.10;4.40;;;-2.00;99.90;;;;;;5048118;28;20277;-70
2022/01/07 04:42:41;;;;;;;8.23;4.40;;;-1.90;99.90;;;;;;5037931;28;20238;-69
2022/01/07 04:45:09;;;;;;;13.93;5.00;;;-1.90;99.90;;;;;;5037227;28;20209;-68
2022/01/07 04:47:36;;;;;;;5.87;4.20;;;-1.90;99.90;;;;;;5037369;28;20270;-69
2022/01/07 04:50:05;;;;;;;11.70;6.00;;;-1.80;99.90;;;;;;5050346;28;20225;-69
2022/01/07 04:52:32;;;;;;;6.83;3.83;;;-1.80;99.90;;;;;;5046429;28;20206;-68
2022/01/07 04:55:00;;;;;;;9.77;4.80;;;-1.80;99.90;;;;;;5055250;28;20267;-68
2022/01/07 04:57:27;;;;;;;9.47;4.90;;;-1.70;99.90;;;;;;5037022;28;20381;-68
2022/01/07 04:59:54;;;;;;;9.63;4.93;;;-1.90;99.90;;;;;;5036834;28;20213;-69
2022/01/07 05:02:22;;;;;;;8.23;4.87;;;-1.80;99.90;;;;;;5035976;28;20203;-68
2022/01/07 05:04:49;;;;;;;14.40;5.27;;;-1.80;99.90;;;;;;5036926;28;20233;-68
2022/01/07 05:07:16;;;;;;;12.50;4.73;;;-1.80;99.90;;;;;;5051134;28;20632;-68
2022/01/07 05:09:43;;;;;;;10.07;5.03;;;-1.80;99.90;;;;;;5036694;28;20206;-69
2022/01/07 05:12:12;;;;;;;10.80;5.47;;;-1.80;99.90;;;;;;5037479;28;20550;-70
2022/01/07 05:14:39;;;;;;;10.07;4.87;;;-1.80;99.90;;;;;;5028025;28;20310;-69
2022/01/07 05:17:06;;;;;;;11.20;5.40;;;-1.80;99.90;;;;;;5033014;28;20202;-69
2022/01/07 05:19:33;;;;;;;14.23;5.23;;;-1.80;99.90;;;;;;5033075;28;20213;-69
2022/01/07 05:22:00;;;;;;;10.77;5.40;;;-1.80;99.90;;;;;;5052642;28;20202;-69
2022/01/07 05:24:27;;;;;;;10.00;5.10;;;-1.70;99.90;;;;;;5046478;28;20212;-68
2022/01/07 05:26:54;;;;;;;13.50;5.47;;;-1.70;99.90;;;;;;5048678;28;20206;-69
2022/01/07 05:29:22;;;;;;;11.23;5.37;;;-1.80;99.90;;;;;;5032758;28;20203;-69
2022/01/07 05:31:49;;;;;;;12.07;5.67;;;-1.80;99.90;;;;;;5027112;28;20627;-68
2022/01/07 05:34:16;;;;;;;12.40;5.20;;;-1.70;99.90;;;;;;5038844;28;20724;-69
2022/01/07 05:36:43;;;;;;;11.27;5.53;;;-1.70;99.90;;;;;;5038808;28;20235;-69
2022/01/07 05:39:10;;;;;;;10.33;5.03;;;-1.70;99.90;;;;;;5050528;28;20224;-69
2022/01/07 05:41:38;;;;;;;8.97;4.73;;;-1.70;99.90;;;;;;5037127;28;20260;-68
2022/01/07 05:44:05;;;;;;;8.57;4.90;;;-1.70;99.90;;;;;;5036109;28;20203;-69
2022/01/07 05:46:34;;;;;;;12.17;4.90;;;-1.70;99.90;;;;;;5036430;28;20431;-68
2022/01/07 05:49:01;;;;;;;9.20;4.23;;;-1.70;99.90;;;;;;5035880;28;20280;-69
2022/01/07 05:51:28;;;;;;;7.30;4.10;;;-1.70;99.90;;;;;;5035396;28;20246;-68
2022/01/07 05:53:54;;;;;;;10.20;4.47;;;-1.70;99.90;;;;;;5036654;28;20226;-71
2022/01/07 05:56:21;;;;;;;7.83;4.67;;;-1.70;99.90;;;;;;5037177;28;20261;-71
2022/01/07 05:58:48;;;;;;;9.67;4.73;;;-1.70;99.90;;;;;;5035857;28;20194;-68
2022/01/07 06:01:15;;;;;;;8.20;4.20;;;-1.60;99.90;;;;;;5030107;28;20671;-68
2022/01/07 06:03:43;;;;;;;9.33;4.63;;;-1.50;99.90;;;;;;5019722;28;20202;-68
2022/01/07 06:06:10;;;;;;;8.53;4.07;;;-1.70;99.90;;;;;;5034476;28;20678;-69
2022/01/07 06:08:37;;;;;;;8.83;4.60;;;-1.50;99.90;;;;;;5036463;28;20206;-68
2022/01/07 06:11:04;;;;;;;8.73;4.33;;;-1.70;99.90;;;;;;5047154;28;20210;-69
2022/01/07 06:13:31;;;;;;;10.43;4.40;;;-1.70;99.90;;;;;;5036016;28;20222;-68
2022/01/07 06:15:58;;;;;;;10.20;5.07;;;-1.70;99.90;;;;;;5035798;28;20249;-68
2022/01/07 06:18:25;;;;;;;11.50;5.40;;;-1.70;99.90;;;;;;5047016;28;20297;-67
2022/01/07 06:20:53;;;;;;;9.67;4.33;;;-1.80;99.90;;;;;;5040294;28;20245;-67
2022/01/07 06:23:20;;;;;;;10.27;4.73;;;-1.80;99.90;;;;;;5055253;28;20214;-68
2022/01/07 06:25:49;;;;;;;6.97;4.27;;;-1.80;99.90;;;;;;5038095;28;20578;-69
2022/01/07 06:28:16;;;;;;;8.43;5.03;;;-1.80;99.90;;;;;;5035568;28;20627;-70
2022/01/07 06:30:43;;;;;;;11.57;4.80;;;-1.80;99.90;;;;;;5033814;28;20596;-69
2022/01/07 06:33:10;;;;;;;7.90;4.80;;;-1.80;99.90;;;;;;5036101;28;20246;-68
2022/01/07 06:35:37;;;;;;;12.40;4.87;;;-1.80;99.90;;;;;;5034713;28;20215;-69
2022/01/07 06:38:05;;;;;;;8.50;4.43;;;-1.80;99.90;;;;;;5029443;28;20334;-68
2022/01/07 06:40:32;;;;;;;6.50;4.30;;;-1.80;99.90;;;;;;5026735;28;20210;-68
2022/01/07 06:42:59;;;;;;;9.83;4.67;;;-1.80;99.90;;;;;;5034233;28;20234;-69
2022/01/07 06:45:26;;;;;;;9.87;4.83;;;-1.90;99.90;;;;;;5033938;28;20213;-68
2022/01/07 06:47:53;;;;;;;9.27;4.20;;;-1.80;99.90;;;;;;5033833;28;20217;-70
2022/01/07 06:50:20;;;;;;;11.93;5.47;;;-1.90;99.90;;;;;;5047460;28;20241;-68
2022/01/07 06:52:47;;;;;;;11.50;4.63;;;-1.80;99.90;;;;;;5033846;28;20296;-67
2022/01/07 06:55:15;;;;;;;8.90;4.10;;;-1.80;99.90;;;;;;5033555;28;20245;-68
2022/01/07 06:57:42;;;;;;;12.27;5.10;;;-1.70;99.90;;;;;;5033072;28;20233;-68
2022/01/07 07:00:10;;;;;;;10.43;4.40;;;-1.80;99.90;;;;;;5040431;28;20897;-69
2022/01/07 07:02:37;;;;;;;11.07;5.10;;;-1.70;99.90;;;;;;5033884;28;20217;-68
2022/01/07 07:05:04;;;;;;;9.20;4.77;;;-1.70;99.90;;;;;;5034285;28;20213;-68
2022/01/07 07:07:31;;;;;;;12.07;5.50;;;-1.60;99.90;;;;;;5034409;28;20314;-68
2022/01/07 07:09:58;;;;;;;11.83;5.20;;;-1.60;99.90;;;;;;5036099;28;20222;-68
2022/01/07 07:12:26;;;;;;;11.83;5.00;;;-1.60;99.90;;;;;;5041480;28;20278;-69
2022/01/07 07:14:53;;;;;;;7.57;4.57;;;-1.50;99.90;;;;;;5048755;28;20253;-67
2022/01/07 07:17:20;;;;;;;12.30;4.93;;;-1.50;99.90;;;;;;5039165;28;20779;-72
2022/01/07 07:19:48;;;;;;;9.17;4.77;;;-1.40;99.90;;;;;;5054325;28;20202;-73
2022/01/07 07:22:15;;;;;;;13.60;4.73;;;-1.40;99.90;;;;;;5054560;28;20228;-68
2022/01/07 07:24:42;;;;;;;7.73;4.33;;;-1.30;99.90;;;;;;5038796;28;20230;-70
2022/01/07 07:27:09;;;;;;;9.70;4.87;;;-1.30;99.90;;;;;;5034604;28;20206;-69
2022/01/07 07:29:38;;;;;;;10.47;4.57;;;-1.20;99.90;;;;;;5037268;28;20662;-73
2022/01/07 07:32:09;;;;;;;9.90;5.10;;;-1.10;99.90;;;;;;5042049;28;20238;-69
2022/01/07 07:34:57;;;;;;;8.40;5.20;;;-1.10;99.90;;;;;;5041887;28;20230;-68
2022/01/07 07:37:24;;;;;;;10.37;4.93;;;-1.00;99.90;;;;;;5039597;28;20242;-71
2022/01/07 07:39:51;;;;;;;12.27;5.23;;;-0.80;99.90;;;;;;5053077;28;20198;-74
2022/01/07 07:42:19;;;;;;;8.83;4.37;;;-0.70;99.90;;;;;;5039982;28;20210;-73
2022/01/07 07:44:48;;;;;;;9.37;5.27;;;-0.50;99.90;;;;;;5047769;28;20198;-74
2022/01/07 07:47:15;;;;;;;9.07;4.47;;;-0.50;99.90;;;;;;5050616;28;20297;-70
2022/01/07 07:49:42;;;;;;;13.10;5.40;;;-0.40;99.90;;;;;;5049495;28;20221;-73
2022/01/07 07:52:08;;;;;;;12.73;5.10;;;-0.30;99.90;;;;;;5041563;28;20252;-72
2022/01/07 07:54:35;;;;;;;9.77;4.97;;;-0.20;99.90;;;;;;5054683;28;20596;-70
2022/01/07 07:57:02;;;;;;;9.90;4.87;;;-0.20;99.90;;;;;;5037760;28;20298;-71
2022/01/07 07:59:29;;;;;;;11.27;5.60;;;-0.10;99.90;;;;;;5037114;28;20280;-70
2022/01/07 08:01:58;;;;;;;11.67;5.47;;;-0.10;99.90;;;;;;5049560;28;20569;-72
2022/01/07 08:04:25;;;;;;;12.07;4.77;;;-0.20;99.90;;;;;;5052860;28;20647;-72
2022/01/07 08:06:52;;;;;;;9.47;5.53;;;-0.10;99.90;;;;;;5042516;28;20217;-72
2022/01/07 08:09:19;;;;;;;11.93;5.73;;;0.00;99.90;;;;;;5037809;28;20214;-73
2022/01/07 08:11:51;;;;;;;11.80;5.40;;;0.00;99.90;;;;;;5056294;28;20317;-72
2022/01/07 08:17:07;;;;;;;13.40;5.83;;;0.30;99.90;;;;;;5045158;28;20752;-72
2022/01/07 08:19:34;;;;;;;11.07;5.83;;;0.50;99.90;;;;;;5053867;28;20213;-73
2022/01/07 08:22:01;;;;;;;8.30;4.43;;;0.60;99.90;;;;;;5045717;28;20209;-73
2022/01/07 08:24:28;;;;;;;11.53;5.00;;;0.80;99.90;;;;;;5041508;28;20218;-69
2022/01/07 08:26:55;;;;;;;10.93;5.57;;;1.00;99.90;;;;;;5042784;28;20214;-69
2022/01/07 08:29:25;;;;;;;11.47;5.33;;;1.10;99.90;;;;;;5049860;28;20228;-68
2022/01/07 08:34:57;;;;;;;10.77;5.20;;;1.40;99.90;;;;;;5042933;28;20631;-69
2022/01/07 08:37:26;;;;;;;12.47;5.40;;;1.60;99.90;;;;;;5039109;28;20242;-71
2022/01/07 08:39:54;;;;;;;9.20;5.33;;;1.80;99.90;;;;;;5047848;28;20504;-72
2022/01/07 08:42:23;;;;;;;9.63;5.10;;;1.90;99.90;;;;;;5045341;28;20220;-71
2022/01/07 08:44:54;;;;;;;9.07;5.60;;;2.10;99.90;;;;;;5046566;28;20210;-71
2022/01/07 08:47:22;;;;;;;9.27;5.70;;;2.40;99.90;;;;;;5037412;28;20217;-73
2022/01/07 08:49:52;;;;;;;12.47;5.70;;;2.40;99.90;;;;;;5043260;28;20214;-73
2022/01/07 08:52:20;;;;;;;12.50;6.60;;;2.40;99.90;;;;;;5046439;28;20282;-74
2022/01/07 08:54:50;;;;;;;12.77;6.30;;;2.40;99.90;;;;;;5040395;28;20358;-73
2022/01/07 08:57:17;;;;;;;11.90;6.57;;;2.40;99.90;;;;;;5049817;28;20223;-72
2022/01/07 08:59:44;;;;;;;12.03;5.97;;;2.50;99.90;;;;;;5051670;28;20220;-71
2022/01/07 09:02:11;;;;;;;15.17;5.73;;;2.70;99.90;;;;;;5045134;28;20242;-73
2022/01/07 09:04:38;;;;;;;11.57;5.23;;;2.80;99.90;;;;;;5043685;28;20238;-71
2022/01/07 09:07:06;;;;;;;8.93;5.53;;;2.80;99.90;;;;;;5056021;28;20233;-74
2022/01/07 09:09:33;;;;;;;11.10;5.90;;;2.70;99.90;;;;;;5058908;28;20216;-74
2022/01/07 09:12:01;;;;;;;9.97;5.37;;;2.70;99.90;;;;;;5049773;28;20671;-71
2022/01/07 09:14:27;;;;;;;10.33;6.10;;;2.60;99.90;;;;;;5048202;28;20513;-74
2022/01/07 09:16:54;;;;;;;13.20;5.87;;;2.50;99.90;;;;;;5059225;28;20555;-73
2022/01/07 09:19:21;;;;;;;9.20;5.10;;;2.40;99.90;;;;;;5046104;28;20249;-74
2022/01/07 09:21:48;;;;;;;9.70;5.70;;;2.30;99.90;;;;;;5044181;28;20240;-72
2022/01/07 09:24:17;;;;;;;8.83;5.80;;;2.30;99.90;;;;;;5054102;28;20202;-72
2022/01/07 09:26:44;;;;;;;10.63;5.03;;;2.30;99.90;;;;;;5045895;28;20217;-73
2022/01/07 09:29:11;;;;;;;10.63;5.47;;;2.30;99.90;;;;;;5054157;28;20209;-71
2022/01/07 09:31:38;;;;;;;11.53;5.57;;;2.30;99.90;;;;;;5046861;28;20288;-73
2022/01/07 09:34:06;;;;;;;10.17;5.90;;;2.40;99.90;;;;;;5047486;28;20233;-72
2022/01/07 09:36:33;;;;;;;12.03;4.83;;;2.60;99.90;;;;;;5047991;28;20230;-72
2022/01/07 09:39:00;;;;;;;11.07;5.10;;;3.00;99.90;;;;;;5047426;28;20206;-72
2022/01/07 09:41:29;;;;;;;9.47;5.13;;;4.00;99.90;;;;;;5045345;28;20297;-72
2022/01/07 09:43:56;;;;;;;10.77;5.50;;;4.70;99.90;;;;;;5041171;28;20267;-72
2022/01/07 09:46:23;;;;;;;8.70;5.20;;;5.20;99.90;;;;;;5053784;28;20726;-73
2022/01/07 09:48:50;;;;;;;10.53;5.67;;;5.60;99.90;;;;;;5049647;28;20256;-73
2022/01/07 09:51:17;;;;;;;9.67;5.00;;;6.00;99.90;;;;;;5043775;28;20653;-70
2022/01/07 09:53:44;;;;;;;13.30;5.90;;;6.30;99.90;;;;;;5053512;28;20235;-70
2022/01/07 09:56:12;;;;;;;9.73;5.30;;;6.80;99.90;;;;;;5055654;28;20309;-73
2022/01/07 09:58:40;;;;;;;9.87;5.03;;;7.10;97.50;;;;;;5056370;28;20521;-74
2022/01/07 10:01:10;;;;;;;11.30;5.70;;;7.70;99.20;;;;;;5046073;28;20633;-73
2022/01/07 10:03:40;;;;;;;10.57;5.33;;;8.60;94.80;;;;;;5054963;28;20210;-74
2022/01/07 10:06:19;;;;;;;7.43;4.90;;;9.00;90.70;;;;;;5057374;28;20244;-74
2022/01/07 10:08:58;;;;;;;11.27;5.13;;;10.20;97.60;;;;;;5055077;28;20326;-70
2022/01/07 10:11:25;;;;;;;7.77;5.03;;;11.80;82.60;;;;;;5056845;28;20571;-73
2022/01/07 10:14:16;;;;;;;11.27;6.17;;;13.50;73.40;;;;;;5042988;28;20213;-73
2022/01/07 10:16:51;;;;;;;10.80;6.13;;;14.80;60.20;;;;;;5053684;28;20248;-74
2022/01/07 10:19:31;;;;;;;9.13;5.27;;;15.40;56.90;;;;;;5045989;28;20236;-74
2022/01/07 10:22:00;;;;;;;8.27;5.13;;;15.30;53.00;;;;;;5051580;28;20207;-73
2022/01/07 10:24:26;;;;;;;8.47;5.40;;;15.00;52.20;;;;;;5050187;28;20258;-72
2022/01/07 10:27:10;;;;;;;7.83;5.57;;;14.40;51.80;;;;;;5043616;28;20297;-71
2022/01/07 10:29:40;;;;;;;7.90;5.33;;;13.40;49.70;;;;;;5052344;28;20220;-71
2022/01/07 10:32:21;;;;;;;10.27;4.90;;;12.40;51.00;;;;;;5055893;28;20269;-74
2022/01/07 10:35:05;;;;;;;8.73;5.13;;;11.60;53.00;;;;;;5030173;28;20265;-72
2022/01/07 10:37:32;;;;;;;10.10;5.20;;;10.90;54.10;;;;;;5051434;28;20264;-71
2022/01/07 10:39:59;;;;;;;11.33;5.80;;;11.10;58.70;;;;;;5054721;28;20222;-71
2022/01/07 10:42:27;;;;;;;9.37;5.43;;;12.50;60.40;;;;;;5039899;28;20285;-72
2022/01/07 10:45:04;;;;;;;9.03;5.57;;;14.50;53.40;;;;;;5055077;28;20210;-72
2022/01/07 10:47:31;;;;;;;10.03;5.87;;;15.90;50.50;;;;;;5054806;28;20304;-72
2022/01/07 10:50:14;;;;;;;10.80;5.80;;;16.90;48.20;;;;;;5044613;28;20216;-73
2022/01/07 10:52:42;;;;;;;8.70;5.47;;;17.90;47.50;;;;;;5044829;28;20293;-73
2022/01/07 10:55:10;;;;;;;9.47;5.27;;;18.50;45.60;;;;;;5037084;28;20236;-73
2022/01/07 10:57:39;;;;;;;10.23;5.30;;;20.10;45.50;;;;;;5031091;28;20226;-72
2022/01/07 11:00:10;;;;;;;8.80;5.67;;;20.40;44.00;;;;;;5034208;28;20356;-72
2022/01/07 11:02:39;;;;;;;7.30;5.20;;;21.30;41.10;;;;;;5034073;28;20206;-73
2022/01/07 11:05:06;;;;;;;8.73;5.32;;;22.00;40.00;;;;;;5042102;28;20219;-71
2022/01/07 11:07:34;;;;;;;11.60;6.50;;;22.40;39.20;;;;;;5043901;28;20238;-73
2022/01/07 11:10:01;;;;;;;9.43;5.63;;;22.40;38.50;;;;;;5039573;28;20615;-73
2022/01/07 11:12:30;;;;;;;10.30;5.47;;;21.90;37.40;;;;;;5039704;28;20207;-73
2022/01/07 11:14:57;;;;;;;8.95;5.20;;;21.50;37.30;;;;;;5044399;28;20232;-71
2022/01/07 11:17:27;;;;;;;8.35;5.40;;;21.10;37.20;;;;;;5046736;28;20293;-72
2022/01/07 11:19:56;;;;;;;8.37;5.63;;;20.50;36.30;;;;;;5046822;28;20221;-70
2022/01/07 11:22:24;;;;;;;8.27;5.20;;;19.90;37.30;;;;;;5045352;28;20224;-73
2022/01/07 11:24:54;;;;;;;9.40;5.63;;;19.50;37.60;;;;;;5034606;28;20202;-75
2022/01/07 11:27:25;;;;;;;8.27;5.40;;;19.20;38.10;;;;;;5049141;28;20205;-70
2022/01/07 11:30:11;;;;;;;9.37;5.60;;;18.90;38.30;;;;;;5053156;28;20221;-70
2022/01/07 11:32:41;;;;;;;11.73;5.77;;;19.10;39.20;;;;;;5041795;28;20202;-73
2022/01/07 11:35:47;;;;;;;9.35;5.50;;;20.50;38.90;;;;;;5033274;28;20226;-72
2022/01/07 11:38:34;;;;;;;11.40;7.45;;;21.70;37.60;;;;;;5042160;28;20276;-72
2022/01/07 11:41:02;;;;;;;10.50;6.72;;;23.00;36.00;;;;;;5043683;28;20211;-73
2022/01/07 11:43:37;;;;;;;7.93;5.38;;;23.10;34.60;;;;;;5042489;28;20286;-76
2022/01/07 11:46:23;;;;;;;11.85;6.65;;;22.60;34.30;;;;;;5047702;28;20213;-74
2022/01/07 11:48:51;;;;;;;10.68;6.18;;;21.70;34.10;;;;;;5053656;28;20209;-73
2022/01/07 11:51:19;;;;;;;10.50;6.43;;;20.10;33.30;;;;;;5040914;28;20206;-73
2022/01/07 11:54:08;;;;;;;12.80;6.67;;;18.60;35.40;;;;;;5032974;28;20656;-73
2022/01/07 11:56:36;;;;;;;11.00;5.87;;;16.90;36.20;;;;;;5047908;28;20244;-75
2022/01/07 11:59:19;;;;;;;13.20;7.13;;;15.60;37.80;;;;;;5042457;28;20298;-72
2022/01/07 12:02:02;;;;;;;10.00;5.63;;;14.20;38.90;;;;;;5044124;28;20201;-75
2022/01/07 12:04:33;;;;;;;10.47;6.37;;;13.00;40.50;;;;;;5052960;28;20561;-72
2022/01/07 12:07:06;;;;;;;13.50;6.47;;;12.10;42.00;;;;;;5044528;28;20197;-74
2022/01/07 12:09:42;;;;;;;12.30;6.60;;;11.20;43.30;;;;;;5044159;28;20285;-71
2022/01/07 12:12:15;;;;;;;12.43;6.90;;;10.60;44.70;;;;;;5054292;28;21236;-72
2022/01/07 12:14:49;;;;;;;10.87;6.17;;;10.10;45.60;;;;;;5053864;28;20213;-70
2022/01/07 12:17:17;;;;;;;8.83;5.57;;;9.60;47.00;;;;;;5035467;28;20268;-71
2022/01/07 12:20:19;;;;;;;9.87;5.27;;;9.00;48.00;;;;;;5037600;28;20265;-72
2022/01/07 12:22:50;;;;;;;9.57;4.83;;;8.60;49.70;;;;;;5045941;28;20589;-72
2022/01/07 12:25:17;;;;;;;8.97;4.93;;;8.10;50.10;;;;;;5032702;28;20238;-72
2022/01/07 12:27:44;;;;;;;10.23;5.23;;;7.70;50.40;;;;;;5049308;28;20205;-73
2022/01/07 12:30:13;;;;;;;8.50;5.00;;;7.40;51.10;;;;;;5044194;28;20249;-72
2022/01/07 12:32:40;;;;;;;12.23;4.67;;;7.00;51.70;;;;;;5049321;28;20747;-72
2022/01/07 12:35:10;;;;;;;10.37;4.93;;;6.80;52.80;;;;;;5036108;28;20196;-72
2022/01/07 12:37:38;;;;;;;14.20;4.77;;;6.50;53.30;;;;;;5052952;28;20605;-70
2022/01/07 12:40:09;;;;;;;10.27;5.00;;;6.20;54.10;;;;;;5043740;28;20199;-73
2022/01/07 12:42:45;;;;;;;9.30;4.13;;;6.00;54.60;;;;;;5041866;28;20237;-72
2022/01/07 12:45:16;;;;;;;8.77;4.50;;;5.80;55.20;;;;;;5045225;28;20241;-72
2022/01/07 12:47:44;;;;;;;8.97;4.80;;;5.60;55.40;;;;;;5045117;28;20198;-73
2022/01/07 12:50:12;;;;;;;7.73;4.40;;;5.40;55.80;;;;;;5041522;28;20209;-72
2022/01/07 12:52:42;;;;;;;8.63;4.40;;;5.30;56.60;;;;;;5042800;28;20214;-73
2022/01/07 12:55:15;;;;;;;9.90;4.30;;;5.20;57.00;;;;;;5041118;28;20228;-73
2022/01/07 12:57:46;;;;;;;7.93;4.10;;;5.10;57.20;;;;;;5041467;28;20229;-72
2022/01/07 13:00:17;;;;;;;10.77;4.23;;;5.00;57.70;;;;;;5040451;28;20233;-74